createdAt,value
2023-02-08T00:01:34.936Z,53.17
2023-02-08T00:04:03.169Z,53.36
2023-02-08T00:06:31.669Z,52.90
2023-02-08T00:09:01.265Z,53.66
2023-02-08T00:11:29.404Z,53.74
2023-02-08T00:13:57.525Z,53.94
2023-02-08T00:16:27.141Z,54.15
2023-02-08T00:18:56.148Z,53.36
2023-02-08T00:21:24.178Z,54.06
2023-02-08T00:23:52.485Z,53.28
2023-02-08T00:26:20.523Z,52.90
2023-02-08T00:28:48.699Z,52.95
2023-02-08T00:31:19.071Z,52.96
2023-02-08T00:33:48.784Z,53.80
2023-02-08T00:36:16.885Z,53.18
2023-02-08T00:38:44.895Z,54.27
2023-02-08T00:41:13.118Z,53.51
2023-02-08T00:43:41.205Z,54.27
2023-02-08T00:46:10.824Z,54.03
2023-02-08T00:48:38.886Z,53.48
2023-02-08T00:51:10.736Z,54.28
2023-02-08T00:53:41.236Z,53.92
2023-02-08T00:56:10.575Z,53.76
2023-02-08T00:58:39.384Z,54.01
2023-02-08T01:01:08.715Z,54.72
2023-02-08T01:03:40.727Z,53.72
2023-02-08T01:06:13.944Z,54.46
2023-02-08T01:08:41.980Z,54.03
2023-02-08T01:11:13.040Z,53.91
2023-02-08T01:13:42.073Z,53.86
2023-02-08T01:16:13.705Z,53.70
2023-02-08T01:18:44.241Z,53.85
2023-02-08T01:21:18.086Z,53.70
2023-02-08T01:23:47.009Z,54.23
2023-02-08T01:26:17.200Z,53.49
2023-02-08T01:28:46.877Z,53.94
2023-02-08T01:31:20.498Z,54.12
2023-02-08T01:33:49.365Z,53.42
2023-02-08T01:36:19.002Z,54.03
2023-02-08T01:38:49.056Z,54.23
2023-02-08T01:41:20.652Z,53.97
2023-02-08T01:44:09.165Z,53.87
2023-02-08T01:46:39.532Z,53.91
2023-02-08T01:49:12.632Z,54.42
2023-02-08T01:51:46.642Z,53.11
2023-02-08T01:54:17.572Z,53.46
2023-02-08T01:56:48.158Z,53.66
2023-02-08T01:59:22.280Z,53.88
2023-02-08T02:01:53.511Z,53.97
2023-02-08T02:04:22.447Z,53.89
2023-02-08T02:06:57.896Z,54.16
2023-02-08T02:09:32.478Z,53.36
2023-02-08T02:12:02.034Z,53.16
2023-02-08T02:14:30.824Z,53.92
2023-02-08T02:17:01.657Z,53.54
2023-02-08T02:19:41.406Z,54.08
2023-02-08T02:22:40.734Z,54.75
2023-02-08T02:25:47.779Z,53.77
2023-02-08T02:29:06.187Z,54.04
2023-02-08T02:32:00.426Z,55.06
2023-02-08T02:34:41.862Z,53.85
2023-02-08T02:37:24.743Z,53.55
2023-02-08T02:40:08.361Z,53.96
2023-02-08T02:43:15.027Z,53.56
2023-02-08T02:45:50.687Z,54.86
2023-02-08T02:48:31.785Z,54.54
2023-02-08T02:51:07.054Z,54.70
2023-02-08T02:53:44.323Z,55.05
2023-02-08T02:56:17.786Z,54.73
2023-02-08T02:58:46.729Z,55.40
2023-02-08T03:01:15.137Z,55.01
2023-02-08T03:03:44.523Z,55.79
2023-02-08T03:06:23.479Z,55.48
2023-02-08T03:09:09.544Z,54.79
2023-02-08T03:11:46.805Z,55.23
2023-02-08T03:14:31.121Z,54.73
2023-02-08T03:17:17.826Z,54.53
2023-02-08T03:19:55.749Z,54.27
2023-02-08T03:22:32.394Z,54.33
2023-02-08T03:25:07.154Z,54.86
2023-02-08T03:27:41.367Z,54.67
2023-02-08T03:30:16.954Z,54.90
2023-02-08T03:32:48.926Z,54.54
2023-02-08T03:35:24.105Z,55.65
2023-02-08T03:37:59.465Z,54.96
2023-02-08T03:40:32.931Z,54.39
2023-02-08T03:43:08.824Z,54.37
2023-02-08T03:45:43.052Z,54.95
2023-02-08T03:48:15.363Z,54.94
2023-02-08T03:50:50.217Z,55.16
2023-02-08T03:53:22.265Z,55.42
2023-02-08T03:55:55.902Z,54.16
2023-02-08T03:58:30.190Z,54.71
2023-02-08T04:01:04.897Z,54.78
2023-02-08T04:03:34.957Z,54.33
2023-02-08T04:06:04.693Z,54.89
2023-02-08T04:08:33.029Z,54.15
2023-02-08T04:11:01.226Z,54.07
2023-02-08T04:13:29.274Z,54.99
2023-02-08T04:15:57.806Z,54.34
2023-02-08T04:18:25.798Z,54.91
2023-02-08T04:20:53.856Z,54.16
2023-02-08T04:23:23.240Z,53.84
2023-02-08T04:25:51.344Z,53.97
2023-02-08T04:28:19.861Z,53.97
2023-02-08T04:30:48.128Z,54.97
2023-02-08T04:33:16.543Z,54.48
2023-02-08T04:35:44.936Z,53.89
2023-02-08T04:38:12.906Z,54.60
2023-02-08T04:40:42.542Z,53.81
2023-02-08T04:43:10.668Z,54.65
2023-02-08T04:45:38.767Z,55.08
2023-02-08T04:48:07.376Z,54.03
2023-02-08T04:50:36.061Z,54.83
2023-02-08T04:53:04.483Z,54.37
2023-02-08T04:55:32.585Z,54.13
2023-02-08T04:58:02.055Z,53.87
2023-02-08T05:00:30.242Z,54.84
2023-02-08T05:02:59.922Z,54.18
2023-02-08T05:05:28.505Z,54.49
2023-02-08T05:07:56.642Z,54.45
2023-02-08T05:10:24.891Z,54.61
2023-02-08T05:12:53.082Z,55.24
2023-02-08T05:15:22.869Z,53.98
2023-02-08T05:17:52.038Z,54.84
2023-02-08T05:20:21.504Z,54.83
2023-02-08T05:22:49.544Z,54.87
2023-02-08T05:25:18.038Z,54.41
2023-02-08T05:27:46.170Z,54.06
2023-02-08T05:30:14.740Z,53.86
2023-02-08T05:32:44.147Z,54.19
2023-02-08T05:35:12.156Z,55.10
2023-02-08T05:37:40.175Z,54.26
2023-02-08T05:40:10.414Z,54.63
2023-02-08T05:42:38.577Z,55.43
2023-02-08T05:45:07.721Z,55.42
2023-02-08T05:47:35.730Z,55.09
2023-02-08T05:50:06.390Z,54.04
2023-02-08T05:52:34.481Z,55.16
2023-02-08T05:55:02.519Z,54.50
2023-02-08T05:57:31.928Z,54.72
2023-02-08T06:00:00.752Z,54.06
2023-02-08T06:02:28.794Z,54.85
2023-02-08T06:04:56.936Z,54.60
2023-02-08T06:07:26.448Z,55.07
2023-02-08T06:09:54.524Z,54.26
2023-02-08T06:12:22.515Z,54.81
2023-02-08T06:14:50.505Z,54.23
2023-02-08T06:17:18.493Z,54.82
2023-02-08T06:19:46.522Z,54.22
2023-02-08T06:22:14.617Z,54.33
2023-02-08T06:24:44.014Z,54.46
2023-02-08T06:27:12.063Z,55.03
2023-02-08T06:29:40.129Z,55.02
2023-02-08T06:32:08.257Z,55.09
2023-02-08T06:34:36.313Z,53.89
2023-02-08T06:37:05.673Z,55.08
2023-02-08T06:39:34.081Z,55.23
2023-02-08T06:42:03.604Z,54.56
2023-02-08T06:44:31.942Z,54.19
2023-02-08T06:47:00.064Z,54.00
2023-02-08T06:49:28.284Z,53.96
2023-02-08T06:51:56.564Z,54.29
2023-02-08T06:54:24.612Z,54.75
2023-02-08T06:56:54.517Z,54.13
2023-02-08T06:59:24.080Z,55.04
2023-02-08T07:01:52.063Z,54.89
2023-02-08T07:04:20.034Z,55.47
2023-02-08T07:06:49.860Z,54.86
2023-02-08T07:09:18.842Z,55.28
2023-02-08T07:11:46.944Z,54.09
2023-02-08T07:14:16.146Z,54.92
2023-02-08T07:16:45.642Z,54.98
2023-02-08T07:19:13.869Z,55.48
2023-02-08T07:21:41.870Z,55.23
2023-02-08T07:24:10.065Z,55.14
2023-02-08T07:26:38.140Z,55.26
2023-02-08T07:29:06.584Z,55.75
2023-02-08T07:31:34.682Z,54.91
2023-02-08T07:34:04.195Z,55.65
2023-02-08T07:36:32.225Z,54.22
2023-02-08T07:39:00.197Z,54.45
2023-02-08T07:41:28.176Z,55.65
2023-02-08T07:43:56.239Z,54.63
2023-02-08T07:46:24.385Z,54.51
2023-02-08T07:48:53.504Z,54.78
2023-02-08T07:51:23.195Z,54.77
2023-02-08T07:53:51.845Z,55.47
2023-02-08T07:56:20.315Z,56.69
2023-02-08T07:58:48.333Z,55.82
2023-02-08T08:01:22.207Z,55.39
2023-02-08T08:03:51.322Z,54.93
2023-02-08T08:06:20.033Z,54.73
2023-02-08T08:08:49.898Z,54.04
2023-02-08T08:11:20.007Z,53.16
2023-02-08T08:13:48.384Z,52.58
2023-02-08T08:16:16.738Z,54.20
2023-02-08T08:18:44.879Z,53.51
2023-02-08T08:21:13.763Z,54.60
2023-02-08T08:23:41.879Z,53.86
2023-02-08T08:26:15.064Z,52.38
2023-02-08T08:28:43.788Z,52.59
2023-02-08T08:31:13.028Z,52.50
2023-02-08T08:33:41.268Z,51.79
2023-02-08T08:36:10.335Z,50.39
2023-02-08T08:38:38.826Z,51.06
2023-02-08T08:41:11.925Z,50.53
2023-02-08T08:43:40.082Z,50.23
2023-02-08T08:46:09.025Z,51.33
2023-02-08T08:48:39.376Z,49.89
2023-02-08T08:51:08.656Z,50.72
2023-02-08T08:53:37.068Z,50.44
2023-02-08T08:56:06.419Z,49.95
2023-02-08T08:58:35.878Z,50.41
2023-02-08T09:01:04.154Z,49.22
2023-02-08T09:03:32.219Z,49.49
2023-02-08T09:06:00.244Z,49.43
2023-02-08T09:08:29.211Z,50.06
2023-02-08T09:10:57.263Z,49.26
2023-02-08T09:13:25.567Z,49.32
2023-02-08T09:15:55.092Z,49.02
2023-02-08T09:18:23.121Z,48.26
2023-02-08T09:20:51.149Z,48.18
2023-02-08T09:23:19.207Z,47.18
2023-02-08T09:25:49.112Z,47.55
2023-02-08T09:28:18.190Z,47.54
2023-02-08T09:30:49.916Z,47.05
2023-02-08T09:33:19.328Z,46.80
2023-02-08T09:35:49.534Z,47.10
2023-02-08T09:38:17.608Z,47.35
2023-02-08T09:41:03.108Z,46.28
2023-02-08T09:43:43.338Z,46.49
2023-02-08T09:46:17.606Z,46.41
2023-02-08T09:48:49.127Z,46.12
2023-02-08T09:51:29.038Z,46.26
2023-02-08T09:54:04.644Z,44.64
2023-02-08T09:56:40.166Z,45.29
2023-02-08T09:59:17.701Z,44.26
2023-02-08T10:01:47.361Z,44.83
2023-02-08T10:04:26.459Z,44.57
2023-02-08T10:06:54.700Z,44.40
2023-02-08T10:09:27.875Z,44.94
2023-02-08T10:12:12.253Z,43.98
2023-02-08T10:15:00.980Z,43.51
2023-02-08T10:17:53.202Z,43.27
2023-02-08T10:20:39.064Z,43.75
2023-02-08T10:23:28.728Z,42.46
2023-02-08T10:26:11.051Z,42.75
2023-02-08T10:28:58.721Z,42.86
2023-02-08T10:31:43.106Z,42.58
2023-02-08T10:34:21.313Z,42.36
2023-02-08T10:36:50.823Z,42.27
2023-02-08T10:39:25.234Z,42.00
2023-02-08T10:41:54.002Z,41.96
2023-02-08T10:44:30.930Z,41.89
2023-02-08T10:47:14.173Z,41.80
2023-02-08T10:49:51.483Z,42.28
2023-02-08T10:52:21.111Z,41.67
2023-02-08T10:54:49.154Z,41.59
2023-02-08T10:57:23.661Z,42.28
2023-02-08T10:59:55.768Z,42.39
2023-02-08T11:02:26.750Z,43.31
2023-02-08T11:05:04.184Z,42.34
2023-02-08T11:07:36.512Z,42.62
2023-02-08T11:10:26.431Z,42.38
2023-02-08T11:13:00.577Z,43.04
2023-02-08T11:15:34.956Z,42.27
2023-02-08T11:18:05.089Z,42.01
2023-02-08T11:20:37.768Z,42.71
2023-02-08T11:23:23.392Z,41.88
2023-02-08T11:25:52.378Z,41.87
2023-02-08T11:28:31.460Z,41.93
2023-02-08T11:31:03.226Z,41.53
2023-02-08T11:33:31.708Z,41.85
2023-02-08T11:36:07.445Z,42.45
2023-02-08T11:38:42.334Z,42.67
2023-02-08T11:41:18.948Z,41.97
2023-02-08T11:44:00.474Z,41.87
2023-02-08T11:46:30.764Z,41.47
2023-02-08T11:48:58.932Z,41.20
2023-02-08T11:51:32.037Z,41.11
2023-02-08T11:54:02.345Z,40.09
2023-02-08T11:56:33.303Z,39.71
2023-02-08T11:59:18.221Z,39.49
2023-02-08T12:01:46.632Z,40.26
2023-02-08T12:04:17.964Z,40.33
2023-02-08T12:07:22.013Z,40.21
2023-02-08T12:10:29.131Z,39.74
2023-02-08T12:13:18.235Z,40.44
2023-02-08T12:16:01.828Z,40.58
2023-02-08T12:19:06.600Z,40.79
2023-02-08T12:21:43.083Z,40.85
2023-02-08T12:24:20.924Z,40.78
2023-02-08T12:27:16.974Z,40.22
2023-02-08T12:29:52.794Z,39.79
2023-02-08T12:32:38.627Z,40.31
2023-02-08T12:35:45.579Z,39.78
2023-02-08T12:38:49.625Z,39.71
2023-02-08T12:41:26.561Z,39.61
2023-02-08T12:44:07.992Z,40.07
2023-02-08T12:46:52.868Z,40.34
2023-02-08T12:49:58.573Z,40.86
2023-02-08T12:52:38.025Z,40.13
2023-02-08T12:55:19.346Z,39.87
2023-02-08T12:57:53.943Z,39.89
2023-02-08T13:00:29.129Z,40.33
2023-02-08T13:03:06.978Z,39.44
2023-02-08T13:05:42.900Z,39.02
2023-02-08T13:08:33.117Z,39.11
2023-02-08T13:11:19.029Z,38.66
2023-02-08T13:13:57.939Z,38.05
2023-02-08T13:16:34.686Z,38.31
2023-02-08T13:19:22.867Z,38.80
2023-02-08T13:21:54.106Z,38.30
2023-02-08T13:24:34.171Z,38.59
2023-02-08T13:27:02.350Z,38.36
2023-02-08T13:29:33.125Z,38.30
2023-02-08T13:32:09.175Z,38.20
2023-02-08T13:34:42.109Z,37.83
2023-02-08T13:37:25.729Z,38.01
2023-02-08T13:40:03.238Z,38.01
2023-02-08T13:42:39.579Z,38.24
2023-02-08T13:45:10.737Z,37.64
2023-02-08T13:47:47.047Z,38.14
2023-02-08T13:50:50.608Z,38.54
2023-02-08T13:53:39.982Z,38.06
2023-02-08T13:56:11.667Z,37.19
2023-02-08T13:59:01.244Z,38.06
2023-02-08T14:01:30.608Z,37.61
2023-02-08T14:04:36.347Z,37.94
2023-02-08T14:07:20.783Z,38.71
2023-02-08T14:10:10.069Z,37.83
2023-02-08T14:12:46.864Z,38.63
2023-02-08T14:15:43.404Z,38.79
2023-02-08T14:18:26.595Z,38.38
2023-02-08T14:21:04.482Z,37.46
2023-02-08T14:23:40.225Z,37.41
2023-02-08T14:26:20.682Z,37.45
2023-02-08T14:28:55.393Z,38.17
2023-02-08T14:31:24.060Z,38.29
2023-02-08T14:33:55.996Z,39.46
2023-02-08T14:36:30.964Z,38.78
2023-02-08T14:39:28.965Z,39.00
2023-02-08T14:42:01.509Z,39.68
2023-02-08T14:45:06.143Z,40.43
2023-02-08T14:48:21.013Z,40.22
2023-02-08T14:51:00.203Z,39.86
2023-02-08T14:53:41.299Z,40.20
2023-02-08T14:56:20.441Z,40.73
2023-02-08T14:59:16.904Z,40.81
2023-02-08T15:01:48.587Z,41.12
2023-02-08T15:04:19.096Z,42.21
2023-02-08T15:07:20.756Z,41.13
2023-02-08T15:09:50.380Z,41.84
2023-02-08T15:12:27.563Z,42.20
2023-02-08T15:14:59.108Z,42.55
2023-02-08T15:17:35.234Z,41.72
2023-02-08T15:20:18.050Z,41.94
2023-02-08T15:22:46.471Z,41.15
2023-02-08T15:25:29.901Z,42.58
2023-02-08T15:28:00.642Z,43.19
2023-02-08T15:30:35.544Z,42.25
2023-02-08T15:33:13.682Z,41.80
2023-02-08T15:35:44.440Z,42.83
2023-02-08T15:38:19.832Z,42.42
2023-02-08T15:41:07.243Z,42.01
2023-02-08T15:43:36.781Z,43.09
2023-02-08T15:46:07.745Z,43.18
2023-02-08T15:48:39.550Z,42.16
2023-02-08T15:51:11.358Z,43.25
2023-02-08T15:53:42.785Z,43.46
2023-02-08T15:56:30.435Z,43.20
2023-02-08T15:59:05.335Z,42.86
2023-02-08T16:01:34.395Z,43.57
2023-02-08T16:04:08.315Z,44.32
2023-02-08T16:06:45.882Z,44.48
2023-02-08T16:09:19.951Z,43.39
2023-02-08T16:11:51.064Z,43.45
2023-02-08T16:14:27.873Z,43.97
2023-02-08T16:16:59.420Z,43.69
2023-02-08T16:19:29.909Z,43.33
2023-02-08T16:22:26.798Z,43.29
2023-02-08T16:24:55.863Z,43.52
2023-02-08T16:27:28.313Z,43.83
2023-02-08T16:29:56.703Z,43.99
2023-02-08T16:32:30.066Z,43.43
2023-02-08T16:34:58.403Z,42.62
2023-02-08T16:37:31.001Z,43.46
2023-02-08T16:40:03.392Z,42.78
2023-02-08T16:42:35.759Z,42.32
2023-02-08T16:45:24.788Z,42.87
2023-02-08T16:47:56.741Z,41.98
2023-02-08T16:50:27.236Z,42.10
2023-02-08T16:53:01.353Z,41.84
2023-02-08T16:55:33.796Z,43.06
2023-02-08T16:58:02.084Z,42.98
2023-02-08T17:00:32.913Z,42.64
2023-02-08T17:03:01.365Z,43.77
2023-02-08T17:05:32.427Z,42.68
2023-02-08T17:08:04.081Z,43.42
2023-02-08T17:10:34.016Z,43.62
2023-02-08T17:13:19.306Z,43.45
2023-02-08T17:15:50.414Z,44.18
2023-02-08T17:18:19.108Z,44.08
2023-02-08T17:20:48.344Z,43.71
2023-02-08T17:23:18.142Z,43.62
2023-02-08T17:25:46.659Z,44.10
2023-02-08T17:28:19.518Z,43.87
2023-02-08T17:30:50.069Z,44.14
2023-02-08T17:33:20.886Z,44.04
2023-02-08T17:35:51.017Z,44.16
2023-02-08T17:38:21.904Z,44.18
2023-02-08T17:40:50.028Z,44.07
2023-02-08T17:43:18.976Z,44.33
2023-02-08T17:45:47.466Z,44.89
2023-02-08T17:48:15.881Z,44.95
2023-02-08T17:50:50.760Z,44.60
2023-02-08T17:53:21.034Z,45.51
2023-02-08T17:55:49.778Z,45.47
2023-02-08T17:58:18.350Z,44.87
2023-02-08T18:00:47.111Z,44.87
2023-02-08T18:03:17.230Z,45.11
2023-02-08T18:05:45.993Z,44.94
2023-02-08T18:08:14.635Z,44.89
2023-02-08T18:10:44.497Z,45.20
2023-02-08T18:13:13.357Z,44.93
2023-02-08T18:15:42.355Z,44.93
2023-02-08T18:18:10.849Z,44.96
2023-02-08T18:20:43.363Z,45.79
2023-02-08T18:23:11.376Z,45.52
2023-02-08T18:25:40.979Z,45.28
2023-02-08T18:28:14.569Z,45.08
2023-02-08T18:30:43.919Z,45.25
2023-02-08T18:33:13.760Z,45.68
2023-02-08T18:35:42.711Z,45.59
2023-02-08T18:38:11.242Z,45.75
2023-02-08T18:40:41.571Z,45.38
2023-02-08T18:43:11.649Z,45.71
2023-02-08T18:45:40.039Z,46.13
2023-02-08T18:48:08.302Z,45.53
2023-02-08T18:50:37.167Z,45.70
2023-02-08T18:53:06.806Z,46.06
2023-02-08T18:55:35.199Z,45.77
2023-02-08T18:58:04.327Z,46.00
2023-02-08T19:00:34.097Z,45.75
2023-02-08T19:03:09.776Z,46.21
2023-02-08T19:05:39.018Z,45.89
2023-02-08T19:08:11.363Z,46.47
2023-02-08T19:10:41.204Z,46.01
2023-02-08T19:13:09.680Z,46.11
2023-02-08T19:15:43.293Z,46.35
2023-02-08T19:18:11.761Z,46.15
2023-02-08T19:20:40.207Z,46.23
2023-02-08T19:23:08.667Z,46.52
2023-02-08T19:25:39.691Z,46.66
2023-02-08T19:28:08.688Z,46.91
2023-02-08T19:30:37.218Z,46.59
2023-02-08T19:33:06.879Z,46.99
2023-02-08T19:35:39.179Z,47.09
2023-02-08T19:38:09.145Z,47.22
2023-02-08T19:40:37.495Z,47.04
2023-02-08T19:43:05.773Z,46.65
2023-02-08T19:45:36.222Z,46.89
2023-02-08T19:48:06.843Z,47.33
2023-02-08T19:50:35.987Z,47.67
2023-02-08T19:53:04.429Z,47.78
2023-02-08T19:55:32.781Z,47.19
2023-02-08T19:58:01.046Z,48.18
2023-02-08T20:00:29.340Z,47.69
2023-02-08T20:02:57.585Z,47.95
2023-02-08T20:05:27.293Z,47.67
2023-02-08T20:07:55.789Z,48.00
2023-02-08T20:10:24.084Z,48.00
2023-02-08T20:12:53.361Z,47.78
2023-02-08T20:15:21.794Z,47.37
2023-02-08T20:17:50.110Z,48.32
2023-02-08T20:20:19.660Z,47.86
2023-02-08T20:22:49.014Z,48.17
2023-02-08T20:25:17.405Z,47.77
2023-02-08T20:27:45.661Z,48.51
2023-02-08T20:30:17.192Z,48.43
2023-02-08T20:32:47.149Z,47.92
2023-02-08T20:35:15.743Z,48.42
2023-02-08T20:37:44.698Z,48.20
2023-02-08T20:40:16.028Z,48.42
2023-02-08T20:42:44.658Z,48.87
2023-02-08T20:45:14.530Z,48.86
2023-02-08T20:47:46.762Z,48.56
2023-02-08T20:50:19.080Z,48.51
2023-02-08T20:52:48.917Z,49.21
2023-02-08T20:55:18.637Z,48.70
2023-02-08T20:57:46.655Z,49.22
2023-02-08T21:00:16.170Z,49.21
2023-02-08T21:02:44.378Z,49.18
2023-02-08T21:05:12.393Z,48.75
2023-02-08T21:07:41.023Z,49.32
2023-02-08T21:10:09.845Z,49.64
2023-02-08T21:12:39.407Z,49.15
2023-02-08T21:15:10.324Z,50.29
2023-02-08T21:17:40.842Z,49.92
2023-02-08T21:20:11.957Z,49.52
2023-02-08T21:22:40.072Z,49.43
2023-02-08T21:25:09.333Z,49.99
2023-02-08T21:27:39.080Z,50.12
2023-02-08T21:30:10.049Z,50.55
2023-02-08T21:32:38.268Z,50.66
2023-02-08T21:35:07.581Z,50.58
2023-02-08T21:37:35.951Z,50.25
2023-02-08T21:40:04.372Z,50.42
2023-02-08T21:42:33.859Z,51.01
2023-02-08T21:45:03.411Z,51.12
2023-02-08T21:47:31.592Z,50.71
2023-02-08T21:50:17.257Z,50.69
2023-02-08T21:53:02.856Z,50.57
2023-02-08T21:55:31.926Z,51.16
2023-02-08T21:58:00.333Z,50.63
2023-02-08T22:00:30.318Z,51.03
2023-02-08T22:02:58.557Z,51.73
2023-02-08T22:05:44.447Z,51.21
2023-02-08T22:08:14.277Z,51.21
2023-02-08T22:10:50.182Z,51.88
2023-02-08T22:13:24.994Z,51.03
2023-02-08T22:15:54.760Z,51.93
2023-02-08T22:18:23.055Z,52.16
2023-02-08T22:20:52.735Z,52.30
2023-02-08T22:23:21.275Z,51.55
2023-02-08T22:25:49.495Z,51.37
2023-02-08T22:28:17.768Z,52.11
2023-02-08T22:30:49.227Z,51.58
2023-02-08T22:33:18.930Z,52.28
2023-02-08T22:35:47.110Z,51.74
2023-02-08T22:38:15.276Z,51.57
2023-02-08T22:40:43.909Z,52.09
2023-02-08T22:43:12.367Z,51.91
2023-02-08T22:45:42.368Z,52.13
2023-02-08T22:48:10.943Z,51.59
2023-02-08T22:50:40.529Z,51.68
2023-02-08T22:53:08.771Z,52.50
2023-02-08T22:55:36.994Z,51.72
2023-02-08T22:58:05.232Z,52.17
2023-02-08T23:00:33.544Z,51.48
2023-02-08T23:03:01.888Z,52.30
2023-02-08T23:05:30.128Z,52.18
2023-02-08T23:07:59.696Z,51.70
2023-02-08T23:10:27.946Z,51.60
2023-02-08T23:12:56.197Z,51.60
2023-02-08T23:15:24.498Z,51.92
2023-02-08T23:17:52.961Z,51.78
2023-02-08T23:20:21.373Z,51.36
2023-02-08T23:22:49.594Z,51.34
2023-02-08T23:25:20.039Z,52.68
2023-02-08T23:27:48.720Z,52.59
2023-02-08T23:30:17.244Z,51.74
2023-02-08T23:32:45.564Z,52.84
2023-02-08T23:35:13.844Z,52.77
2023-02-08T23:37:42.143Z,52.56
2023-02-08T23:40:12.044Z,53.22
2023-02-08T23:42:41.728Z,52.18
2023-02-08T23:45:11.242Z,52.81
2023-02-08T23:47:40.349Z,52.92
2023-02-08T23:50:11.093Z,53.06
2023-02-08T23:52:39.427Z,53.46
2023-02-08T23:55:10.016Z,52.45
2023-02-08T23:57:39.439Z,53.38
